sensor_id;sensor_type;location;lat;lon;timestamp;P1;durP1;ratioP1;P2;durP2;ratioP2
58338;SDS011;48278;52.704;6.536;2023-02-04T00:01:33;74.00;;;5.30;;
58338;SDS011;48278;52.704;6.536;2023-02-04T00:03:59;67.28;;;5.47;;
58338;SDS011;48278;52.704;6.536;2023-02-04T00:06:25;67.85;;;6.40;;
58338;SDS011;48278;52.704;6.536;2023-02-04T00:08:51;79.13;;;6.38;;
58338;SDS011;48278;52.704;6.536;2023-02-04T00:11:17;80.25;;;7.25;;
58338;SDS011;48278;52.704;6.536;2023-02-04T00:13:43;83.63;;;7.50;;
58338;SDS011;48278;52.704;6.536;2023-02-04T00:16:09;91.32;;;10.43;;
58338;SDS011;48278;52.704;6.536;2023-02-04T00:18:34;88.97;;;6.65;;
58338;SDS011;48278;52.704;6.536;2023-02-04T00:21:00;65.82;;;6.72;;
58338;SDS011;48278;52.704;6.536;2023-02-04T00:23:26;53.90;;;5.75;;
58338;SDS011;48278;52.704;6.536;2023-02-04T00:25:51;73.18;;;6.10;;
58338;SDS011;48278;52.704;6.536;2023-02-04T00:28:17;77.03;;;6.50;;
58338;SDS011;48278;52.704;6.536;2023-02-04T00:30:43;67.55;;;4.68;;
58338;SDS011;48278;52.704;6.536;2023-02-04T00:33:09;84.60;;;6.68;;
58338;SDS011;48278;52.704;6.536;2023-02-04T00:35:35;59.85;;;4.43;;
58338;SDS011;48278;52.704;6.536;2023-02-04T00:38:04;83.95;;;5.38;;
58338;SDS011;48278;52.704;6.536;2023-02-04T00:40:30;86.78;;;6.78;;
58338;SDS011;48278;52.704;6.536;2023-02-04T00:42:57;77.50;;;5.15;;
58338;SDS011;48278;52.704;6.536;2023-02-04T00:45:23;77.77;;;6.10;;
58338;SDS011;48278;52.704;6.536;2023-02-04T00:47:49;84.68;;;5.68;;
58338;SDS011;48278;52.704;6.536;2023-02-04T00:50:15;90.53;;;6.40;;
58338;SDS011;48278;52.704;6.536;2023-02-04T00:52:41;74.47;;;6.70;;
58338;SDS011;48278;52.704;6.536;2023-02-04T00:55:07;62.60;;;5.22;;
58338;SDS011;48278;52.704;6.536;2023-02-04T00:57:35;62.97;;;4.68;;
58338;SDS011;48278;52.704;6.536;2023-02-04T01:00:02;69.93;;;4.80;;
58338;SDS011;48278;52.704;6.536;2023-02-04T01:02:29;77.75;;;5.53;;
58338;SDS011;48278;52.704;6.536;2023-02-04T01:04:56;80.87;;;5.70;;
58338;SDS011;48278;52.704;6.536;2023-02-04T01:07:21;64.93;;;6.38;;
58338;SDS011;48278;52.704;6.536;2023-02-04T01:09:47;68.80;;;5.32;;
58338;SDS011;48278;52.704;6.536;2023-02-04T01:12:13;81.45;;;5.85;;
58338;SDS011;48278;52.704;6.536;2023-02-04T01:14:39;65.05;;;5.25;;
58338;SDS011;48278;52.704;6.536;2023-02-04T01:17:05;74.60;;;6.45;;
58338;SDS011;48278;52.704;6.536;2023-02-04T01:19:31;76.43;;;5.75;;
58338;SDS011;48278;52.704;6.536;2023-02-04T01:21:56;96.28;;;6.18;;
58338;SDS011;48278;52.704;6.536;2023-02-04T01:24:22;76.93;;;6.35;;
58338;SDS011;48278;52.704;6.536;2023-02-04T01:26:48;70.30;;;6.85;;
58338;SDS011;48278;52.704;6.536;2023-02-04T01:29:13;80.35;;;5.53;;
58338;SDS011;48278;52.704;6.536;2023-02-04T01:31:39;75.68;;;6.60;;
58338;SDS011;48278;52.704;6.536;2023-02-04T01:34:05;73.35;;;6.55;;
58338;SDS011;48278;52.704;6.536;2023-02-04T01:36:31;79.72;;;5.22;;
58338;SDS011;48278;52.704;6.536;2023-02-04T01:38:57;61.67;;;5.82;;
58338;SDS011;48278;52.704;6.536;2023-02-04T01:41:25;71.25;;;5.95;;
58338;SDS011;48278;52.704;6.536;2023-02-04T01:43:50;97.60;;;6.72;;
58338;SDS011;48278;52.704;6.536;2023-02-04T01:46:16;74.25;;;6.28;;
58338;SDS011;48278;52.704;6.536;2023-02-04T01:48:42;75.38;;;5.30;;
58338;SDS011;48278;52.704;6.536;2023-02-04T01:51:09;70.25;;;6.00;;
58338;SDS011;48278;52.704;6.536;2023-02-04T01:53:36;79.07;;;6.55;;
58338;SDS011;48278;52.704;6.536;2023-02-04T01:58:44;71.45;;;6.25;;
58338;SDS011;48278;52.704;6.536;2023-02-04T02:01:14;58.55;;;4.05;;
58338;SDS011;48278;52.704;6.536;2023-02-04T02:03:57;61.55;;;4.82;;
58338;SDS011;48278;52.704;6.536;2023-02-04T02:06:22;65.35;;;5.80;;
58338;SDS011;48278;52.704;6.536;2023-02-04T02:08:48;73.95;;;4.47;;
58338;SDS011;48278;52.704;6.536;2023-02-04T02:11:14;72.05;;;5.90;;
58338;SDS011;48278;52.704;6.536;2023-02-04T02:13:40;74.38;;;5.22;;
58338;SDS011;48278;52.704;6.536;2023-02-04T02:16:05;70.15;;;7.18;;
58338;SDS011;48278;52.704;6.536;2023-02-04T02:18:31;68.93;;;5.03;;
58338;SDS011;48278;52.704;6.536;2023-02-04T02:20:57;80.03;;;5.20;;
58338;SDS011;48278;52.704;6.536;2023-02-04T02:26:12;68.50;;;7.75;;
58338;SDS011;48278;52.704;6.536;2023-02-04T02:28:39;67.90;;;4.72;;
58338;SDS011;48278;52.704;6.536;2023-02-04T02:31:06;79.65;;;6.32;;
58338;SDS011;48278;52.704;6.536;2023-02-04T02:33:32;68.47;;;5.38;;
58338;SDS011;48278;52.704;6.536;2023-02-04T02:35:58;74.32;;;5.43;;
58338;SDS011;48278;52.704;6.536;2023-02-04T02:38:23;68.10;;;5.43;;
58338;SDS011;48278;52.704;6.536;2023-02-04T02:40:49;89.18;;;7.25;;
58338;SDS011;48278;52.704;6.536;2023-02-04T02:43:21;77.28;;;6.10;;
58338;SDS011;48278;52.704;6.536;2023-02-04T02:45:49;73.65;;;7.32;;
58338;SDS011;48278;52.704;6.536;2023-02-04T02:48:16;84.10;;;6.78;;
58338;SDS011;48278;52.704;6.536;2023-02-04T02:50:42;89.40;;;6.13;;
58338;SDS011;48278;52.704;6.536;2023-02-04T02:53:10;81.83;;;5.80;;
58338;SDS011;48278;52.704;6.536;2023-02-04T02:55:37;77.18;;;6.30;;
58338;SDS011;48278;52.704;6.536;2023-02-04T02:58:03;69.55;;;6.53;;
58338;SDS011;48278;52.704;6.536;2023-02-04T03:00:34;68.35;;;5.20;;
58338;SDS011;48278;52.704;6.536;2023-02-04T03:05:29;74.05;;;5.35;;
58338;SDS011;48278;52.704;6.536;2023-02-04T03:07:59;75.97;;;6.65;;
58338;SDS011;48278;52.704;6.536;2023-02-04T03:10:25;64.97;;;5.28;;
58338;SDS011;48278;52.704;6.536;2023-02-04T03:12:50;72.78;;;6.18;;
58338;SDS011;48278;52.704;6.536;2023-02-04T03:15:16;66.43;;;4.43;;
58338;SDS011;48278;52.704;6.536;2023-02-04T03:17:42;56.17;;;4.72;;
58338;SDS011;48278;52.704;6.536;2023-02-04T03:20:09;51.58;;;4.35;;
58338;SDS011;48278;52.704;6.536;2023-02-04T03:22:35;66.38;;;6.80;;
58338;SDS011;48278;52.704;6.536;2023-02-04T03:25:01;73.60;;;6.60;;
58338;SDS011;48278;52.704;6.536;2023-02-04T03:27:30;71.90;;;5.10;;
58338;SDS011;48278;52.704;6.536;2023-02-04T03:29:56;59.65;;;5.45;;
58338;SDS011;48278;52.704;6.536;2023-02-04T03:32:21;63.72;;;4.32;;
58338;SDS011;48278;52.704;6.536;2023-02-04T03:34:47;67.07;;;5.15;;
58338;SDS011;48278;52.704;6.536;2023-02-04T03:37:13;64.10;;;5.10;;
58338;SDS011;48278;52.704;6.536;2023-02-04T03:39:38;65.95;;;5.20;;
58338;SDS011;48278;52.704;6.536;2023-02-04T03:42:04;73.40;;;4.65;;
58338;SDS011;48278;52.704;6.536;2023-02-04T03:44:30;69.70;;;5.95;;
58338;SDS011;48278;52.704;6.536;2023-02-04T03:46:55;60.60;;;5.18;;
58338;SDS011;48278;52.704;6.536;2023-02-04T03:49:21;69.90;;;5.50;;
58338;SDS011;48278;52.704;6.536;2023-02-04T03:51:47;70.63;;;4.80;;
58338;SDS011;48278;52.704;6.536;2023-02-04T03:54:13;59.13;;;6.13;;
58338;SDS011;48278;52.704;6.536;2023-02-04T03:56:38;68.18;;;4.55;;
58338;SDS011;48278;52.704;6.536;2023-02-04T03:59:04;77.45;;;5.63;;
58338;SDS011;48278;52.704;6.536;2023-02-04T04:01:30;63.70;;;4.78;;
58338;SDS011;48278;52.704;6.536;2023-02-04T04:03:56;67.70;;;4.20;;
58338;SDS011;48278;52.704;6.536;2023-02-04T04:06:22;78.18;;;6.00;;
58338;SDS011;48278;52.704;6.536;2023-02-04T04:08:47;83.30;;;6.85;;
58338;SDS011;48278;52.704;6.536;2023-02-04T04:11:13;65.88;;;4.22;;
58338;SDS011;48278;52.704;6.536;2023-02-04T04:13:39;75.53;;;6.07;;
58338;SDS011;48278;52.704;6.536;2023-02-04T04:16:05;76.13;;;5.35;;
58338;SDS011;48278;52.704;6.536;2023-02-04T04:18:32;70.10;;;5.13;;
58338;SDS011;48278;52.704;6.536;2023-02-04T04:20:58;51.60;;;5.15;;
58338;SDS011;48278;52.704;6.536;2023-02-04T04:23:23;55.70;;;4.85;;
58338;SDS011;48278;52.704;6.536;2023-02-04T04:25:49;81.65;;;5.28;;
58338;SDS011;48278;52.704;6.536;2023-02-04T04:28:15;77.05;;;6.43;;
58338;SDS011;48278;52.704;6.536;2023-02-04T04:30:41;61.63;;;5.45;;
58338;SDS011;48278;52.704;6.536;2023-02-04T04:33:07;74.40;;;4.93;;
58338;SDS011;48278;52.704;6.536;2023-02-04T04:35:32;62.92;;;5.13;;
58338;SDS011;48278;52.704;6.536;2023-02-04T04:37:59;81.05;;;5.45;;
58338;SDS011;48278;52.704;6.536;2023-02-04T04:40:25;89.60;;;7.28;;
58338;SDS011;48278;52.704;6.536;2023-02-04T04:42:51;60.42;;;5.72;;
58338;SDS011;48278;52.704;6.536;2023-02-04T04:45:17;69.03;;;5.28;;
58338;SDS011;48278;52.704;6.536;2023-02-04T04:47:44;74.80;;;6.07;;
58338;SDS011;48278;52.704;6.536;2023-02-04T04:50:09;72.55;;;4.65;;
58338;SDS011;48278;52.704;6.536;2023-02-04T04:52:35;67.68;;;5.22;;
58338;SDS011;48278;52.704;6.536;2023-02-04T04:55:01;69.20;;;4.95;;
58338;SDS011;48278;52.704;6.536;2023-02-04T04:57:28;62.17;;;5.43;;
58338;SDS011;48278;52.704;6.536;2023-02-04T04:59:53;67.53;;;4.03;;
58338;SDS011;48278;52.704;6.536;2023-02-04T05:02:19;66.35;;;4.00;;
58338;SDS011;48278;52.704;6.536;2023-02-04T05:04:45;80.80;;;5.63;;
58338;SDS011;48278;52.704;6.536;2023-02-04T05:07:11;55.17;;;4.13;;
58338;SDS011;48278;52.704;6.536;2023-02-04T05:09:36;77.57;;;5.88;;
58338;SDS011;48278;52.704;6.536;2023-02-04T05:12:02;58.20;;;3.58;;
58338;SDS011;48278;52.704;6.536;2023-02-04T05:14:28;70.30;;;5.57;;
58338;SDS011;48278;52.704;6.536;2023-02-04T05:16:54;69.28;;;5.13;;
58338;SDS011;48278;52.704;6.536;2023-02-04T05:19:19;70.57;;;6.13;;
58338;SDS011;48278;52.704;6.536;2023-02-04T05:21:45;62.47;;;4.55;;
58338;SDS011;48278;52.704;6.536;2023-02-04T05:24:11;63.55;;;4.45;;
58338;SDS011;48278;52.704;6.536;2023-02-04T05:26:37;80.22;;;6.50;;
58338;SDS011;48278;52.704;6.536;2023-02-04T05:29:03;65.60;;;4.90;;
58338;SDS011;48278;52.704;6.536;2023-02-04T05:31:28;81.65;;;5.40;;
58338;SDS011;48278;52.704;6.536;2023-02-04T05:33:54;62.10;;;4.35;;
58338;SDS011;48278;52.704;6.536;2023-02-04T05:36:20;61.80;;;5.40;;
58338;SDS011;48278;52.704;6.536;2023-02-04T05:38:46;74.57;;;5.65;;
58338;SDS011;48278;52.704;6.536;2023-02-04T05:41:11;88.53;;;5.22;;
58338;SDS011;48278;52.704;6.536;2023-02-04T05:43:37;65.93;;;5.47;;
58338;SDS011;48278;52.704;6.536;2023-02-04T05:46:03;65.80;;;5.80;;
58338;SDS011;48278;52.704;6.536;2023-02-04T05:48:29;59.85;;;8.20;;
58338;SDS011;48278;52.704;6.536;2023-02-04T05:50:55;68.60;;;4.55;;
58338;SDS011;48278;52.704;6.536;2023-02-04T05:53:21;67.90;;;6.90;;
58338;SDS011;48278;52.704;6.536;2023-02-04T05:55:46;68.30;;;6.35;;
58338;SDS011;48278;52.704;6.536;2023-02-04T05:58:12;66.68;;;5.82;;
58338;SDS011;48278;52.704;6.536;2023-02-04T06:00:39;80.60;;;5.22;;
58338;SDS011;48278;52.704;6.536;2023-02-04T06:03:05;75.97;;;5.05;;
58338;SDS011;48278;52.704;6.536;2023-02-04T06:05:31;62.13;;;4.88;;
58338;SDS011;48278;52.704;6.536;2023-02-04T06:07:57;66.10;;;6.13;;
58338;SDS011;48278;52.704;6.536;2023-02-04T06:10:22;60.55;;;5.35;;
58338;SDS011;48278;52.704;6.536;2023-02-04T06:12:48;63.53;;;5.35;;
58338;SDS011;48278;52.704;6.536;2023-02-04T06:15:14;68.20;;;6.30;;
58338;SDS011;48278;52.704;6.536;2023-02-04T06:17:40;60.38;;;4.95;;
58338;SDS011;48278;52.704;6.536;2023-02-04T06:20:06;62.95;;;5.78;;
58338;SDS011;48278;52.704;6.536;2023-02-04T06:22:32;74.45;;;6.15;;
58338;SDS011;48278;52.704;6.536;2023-02-04T06:24:58;81.55;;;6.18;;
58338;SDS011;48278;52.704;6.536;2023-02-04T06:27:24;77.60;;;7.22;;
58338;SDS011;48278;52.704;6.536;2023-02-04T06:29:50;59.63;;;4.95;;
58338;SDS011;48278;52.704;6.536;2023-02-04T06:32:17;71.20;;;6.45;;
58338;SDS011;48278;52.704;6.536;2023-02-04T06:34:43;63.80;;;5.65;;
58338;SDS011;48278;52.704;6.536;2023-02-04T06:37:09;67.05;;;5.88;;
58338;SDS011;48278;52.704;6.536;2023-02-04T06:39:35;65.32;;;5.40;;
58338;SDS011;48278;52.704;6.536;2023-02-04T06:42:01;85.15;;;6.68;;
58338;SDS011;48278;52.704;6.536;2023-02-04T06:44:26;62.30;;;6.60;;
58338;SDS011;48278;52.704;6.536;2023-02-04T06:46:52;62.90;;;5.80;;
58338;SDS011;48278;52.704;6.536;2023-02-04T06:49:18;63.00;;;5.05;;
58338;SDS011;48278;52.704;6.536;2023-02-04T06:51:43;59.75;;;5.05;;
58338;SDS011;48278;52.704;6.536;2023-02-04T06:54:09;59.00;;;4.72;;
58338;SDS011;48278;52.704;6.536;2023-02-04T06:56:35;54.90;;;5.97;;
58338;SDS011;48278;52.704;6.536;2023-02-04T06:59:01;71.30;;;5.80;;
58338;SDS011;48278;52.704;6.536;2023-02-04T07:01:27;87.00;;;6.30;;
58338;SDS011;48278;52.704;6.536;2023-02-04T07:03:53;60.25;;;4.18;;
58338;SDS011;48278;52.704;6.536;2023-02-04T07:06:18;72.82;;;7.55;;
58338;SDS011;48278;52.704;6.536;2023-02-04T07:08:44;82.18;;;9.23;;
58338;SDS011;48278;52.704;6.536;2023-02-04T07:11:11;81.70;;;7.47;;
58338;SDS011;48278;52.704;6.536;2023-02-04T07:13:37;85.68;;;11.73;;
58338;SDS011;48278;52.704;6.536;2023-02-04T07:16:02;59.17;;;8.07;;
58338;SDS011;48278;52.704;6.536;2023-02-04T07:18:28;84.90;;;7.97;;
58338;SDS011;48278;52.704;6.536;2023-02-04T07:20:54;76.20;;;10.43;;
58338;SDS011;48278;52.704;6.536;2023-02-04T07:23:20;98.72;;;8.90;;
58338;SDS011;48278;52.704;6.536;2023-02-04T07:25:45;78.38;;;8.00;;
58338;SDS011;48278;52.704;6.536;2023-02-04T07:28:11;68.55;;;8.07;;
58338;SDS011;48278;52.704;6.536;2023-02-04T07:30:37;86.75;;;10.98;;
58338;SDS011;48278;52.704;6.536;2023-02-04T07:33:02;89.85;;;9.15;;
58338;SDS011;48278;52.704;6.536;2023-02-04T07:35:28;81.50;;;8.38;;
58338;SDS011;48278;52.704;6.536;2023-02-04T07:37:54;86.88;;;8.02;;
58338;SDS011;48278;52.704;6.536;2023-02-04T07:40:19;65.60;;;6.82;;
58338;SDS011;48278;52.704;6.536;2023-02-04T07:42:45;72.80;;;6.40;;
58338;SDS011;48278;52.704;6.536;2023-02-04T07:45:11;76.25;;;7.93;;
58338;SDS011;48278;52.704;6.536;2023-02-04T07:47:37;68.28;;;4.40;;
58338;SDS011;48278;52.704;6.536;2023-02-04T07:50:02;71.30;;;6.40;;
58338;SDS011;48278;52.704;6.536;2023-02-04T07:52:28;74.22;;;5.75;;
58338;SDS011;48278;52.704;6.536;2023-02-04T07:54:54;57.72;;;5.22;;
58338;SDS011;48278;52.704;6.536;2023-02-04T07:57:20;54.78;;;6.25;;
58338;SDS011;48278;52.704;6.536;2023-02-04T07:59:46;39.45;;;4.68;;
58338;SDS011;48278;52.704;6.536;2023-02-04T08:02:11;53.28;;;6.68;;
58338;SDS011;48278;52.704;6.536;2023-02-04T08:04:37;78.55;;;13.82;;
58338;SDS011;48278;52.704;6.536;2023-02-04T08:07:03;41.80;;;3.83;;
58338;SDS011;48278;52.704;6.536;2023-02-04T08:09:29;33.90;;;3.92;;
58338;SDS011;48278;52.704;6.536;2023-02-04T08:11:55;33.00;;;5.60;;
58338;SDS011;48278;52.704;6.536;2023-02-04T08:14:21;22.45;;;3.42;;
58338;SDS011;48278;52.704;6.536;2023-02-04T08:16:47;28.27;;;2.45;;
58338;SDS011;48278;52.704;6.536;2023-02-04T08:19:12;23.60;;;2.40;;
58338;SDS011;48278;52.704;6.536;2023-02-04T08:21:43;22.45;;;1.92;;
58338;SDS011;48278;52.704;6.536;2023-02-04T08:24:10;35.70;;;6.22;;
58338;SDS011;48278;52.704;6.536;2023-02-04T08:26:37;31.52;;;3.40;;
58338;SDS011;48278;52.704;6.536;2023-02-04T08:29:03;28.38;;;3.55;;
58338;SDS011;48278;52.704;6.536;2023-02-04T08:31:29;26.60;;;2.15;;
58338;SDS011;48278;52.704;6.536;2023-02-04T08:33:55;19.13;;;2.65;;
58338;SDS011;48278;52.704;6.536;2023-02-04T08:36:21;43.35;;;2.95;;
58338;SDS011;48278;52.704;6.536;2023-02-04T08:38:46;20.38;;;2.13;;
58338;SDS011;48278;52.704;6.536;2023-02-04T08:41:12;16.52;;;2.03;;
58338;SDS011;48278;52.704;6.536;2023-02-04T08:43:37;23.45;;;1.67;;
58338;SDS011;48278;52.704;6.536;2023-02-04T08:46:03;19.60;;;2.80;;
58338;SDS011;48278;52.704;6.536;2023-02-04T08:48:29;27.05;;;3.38;;
58338;SDS011;48278;52.704;6.536;2023-02-04T08:50:55;25.67;;;3.08;;
58338;SDS011;48278;52.704;6.536;2023-02-04T08:53:20;45.17;;;5.32;;
58338;SDS011;48278;52.704;6.536;2023-02-04T08:55:46;28.80;;;2.75;;
58338;SDS011;48278;52.704;6.536;2023-02-04T08:58:12;29.90;;;2.05;;
58338;SDS011;48278;52.704;6.536;2023-02-04T09:00:38;16.42;;;1.60;;
58338;SDS011;48278;52.704;6.536;2023-02-04T09:03:03;21.35;;;2.65;;
58338;SDS011;48278;52.704;6.536;2023-02-04T09:05:29;28.85;;;4.55;;
58338;SDS011;48278;52.704;6.536;2023-02-04T09:07:55;22.77;;;2.30;;
58338;SDS011;48278;52.704;6.536;2023-02-04T09:10:20;18.75;;;2.67;;
58338;SDS011;48278;52.704;6.536;2023-02-04T09:12:46;22.58;;;2.60;;
58338;SDS011;48278;52.704;6.536;2023-02-04T09:15:12;17.70;;;1.95;;
58338;SDS011;48278;52.704;6.536;2023-02-04T09:17:38;19.23;;;1.60;;
58338;SDS011;48278;52.704;6.536;2023-02-04T09:20:04;20.20;;;1.50;;
58338;SDS011;48278;52.704;6.536;2023-02-04T09:22:31;17.13;;;1.80;;
58338;SDS011;48278;52.704;6.536;2023-02-04T09:24:56;18.13;;;1.80;;
58338;SDS011;48278;52.704;6.536;2023-02-04T09:27:22;15.85;;;1.52;;
58338;SDS011;48278;52.704;6.536;2023-02-04T09:29:48;25.00;;;2.50;;
58338;SDS011;48278;52.704;6.536;2023-02-04T09:32:13;20.35;;;2.67;;
58338;SDS011;48278;52.704;6.536;2023-02-04T09:34:39;27.45;;;6.72;;
58338;SDS011;48278;52.704;6.536;2023-02-04T09:37:05;28.70;;;3.97;;
58338;SDS011;48278;52.704;6.536;2023-02-04T09:39:30;24.55;;;3.67;;
58338;SDS011;48278;52.704;6.536;2023-02-04T09:41:57;16.88;;;2.97;;
58338;SDS011;48278;52.704;6.536;2023-02-04T09:44:24;31.65;;;9.38;;
58338;SDS011;48278;52.704;6.536;2023-02-04T09:46:52;29.92;;;7.82;;
58338;SDS011;48278;52.704;6.536;2023-02-04T09:49:20;38.60;;;9.50;;
58338;SDS011;48278;52.704;6.536;2023-02-04T09:51:46;25.08;;;3.17;;
58338;SDS011;48278;52.704;6.536;2023-02-04T09:54:14;35.38;;;12.10;;
58338;SDS011;48278;52.704;6.536;2023-02-04T09:56:41;26.58;;;5.05;;
58338;SDS011;48278;52.704;6.536;2023-02-04T09:59:11;17.10;;;2.42;;
58338;SDS011;48278;52.704;6.536;2023-02-04T10:01:38;17.25;;;1.67;;
58338;SDS011;48278;52.704;6.536;2023-02-04T10:04:04;24.67;;;2.38;;
58338;SDS011;48278;52.704;6.536;2023-02-04T10:06:38;21.40;;;3.08;;
58338;SDS011;48278;52.704;6.536;2023-02-04T10:09:05;17.58;;;1.48;;
58338;SDS011;48278;52.704;6.536;2023-02-04T10:11:35;13.52;;;1.20;;
58338;SDS011;48278;52.704;6.536;2023-02-04T10:14:02;18.52;;;1.48;;
58338;SDS011;48278;52.704;6.536;2023-02-04T10:16:31;21.00;;;2.63;;
58338;SDS011;48278;52.704;6.536;2023-02-04T10:18:59;18.00;;;1.90;;
58338;SDS011;48278;52.704;6.536;2023-02-04T10:21:31;13.20;;;1.77;;
58338;SDS011;48278;52.704;6.536;2023-02-04T10:24:01;21.90;;;2.40;;
58338;SDS011;48278;52.704;6.536;2023-02-04T10:26:31;21.48;;;3.13;;
58338;SDS011;48278;52.704;6.536;2023-02-04T10:28:58;30.08;;;2.00;;
58338;SDS011;48278;52.704;6.536;2023-02-04T10:31:29;19.60;;;1.45;;
58338;SDS011;48278;52.704;6.536;2023-02-04T10:34:11;12.30;;;1.75;;
58338;SDS011;48278;52.704;6.536;2023-02-04T10:36:47;26.60;;;3.70;;
58338;SDS011;48278;52.704;6.536;2023-02-04T10:39:15;13.43;;;2.50;;
58338;SDS011;48278;52.704;6.536;2023-02-04T10:41:49;29.08;;;3.67;;
58338;SDS011;48278;52.704;6.536;2023-02-04T10:44:16;23.45;;;2.35;;
58338;SDS011;48278;52.704;6.536;2023-02-04T10:46:43;20.17;;;3.22;;
58338;SDS011;48278;52.704;6.536;2023-02-04T10:49:16;15.23;;;1.23;;
58338;SDS011;48278;52.704;6.536;2023-02-04T10:51:42;17.08;;;1.98;;
58338;SDS011;48278;52.704;6.536;2023-02-04T10:54:12;18.40;;;1.50;;
58338;SDS011;48278;52.704;6.536;2023-02-04T10:59:28;21.80;;;1.95;;
58338;SDS011;48278;52.704;6.536;2023-02-04T11:01:54;10.95;;;1.95;;
58338;SDS011;48278;52.704;6.536;2023-02-04T11:04:21;15.23;;;3.17;;
58338;SDS011;48278;52.704;6.536;2023-02-04T11:06:49;20.58;;;4.30;;
58338;SDS011;48278;52.704;6.536;2023-02-04T11:09:16;17.42;;;3.08;;
58338;SDS011;48278;52.704;6.536;2023-02-04T11:11:46;15.35;;;4.20;;
58338;SDS011;48278;52.704;6.536;2023-02-04T11:14:27;15.00;;;2.95;;
58338;SDS011;48278;52.704;6.536;2023-02-04T11:16:54;19.80;;;2.20;;
58338;SDS011;48278;52.704;6.536;2023-02-04T11:19:37;23.30;;;2.17;;
58338;SDS011;48278;52.704;6.536;2023-02-04T11:22:19;10.15;;;1.52;;
58338;SDS011;48278;52.704;6.536;2023-02-04T11:24:49;22.65;;;2.50;;
58338;SDS011;48278;52.704;6.536;2023-02-04T11:27:20;11.75;;;2.10;;
58338;SDS011;48278;52.704;6.536;2023-02-04T11:29:48;25.40;;;3.60;;
58338;SDS011;48278;52.704;6.536;2023-02-04T11:32:31;26.00;;;2.78;;
58338;SDS011;48278;52.704;6.536;2023-02-04T11:35:07;31.60;;;3.40;;
58338;SDS011;48278;52.704;6.536;2023-02-04T11:37:37;24.00;;;3.90;;
58338;SDS011;48278;52.704;6.536;2023-02-04T11:40:13;30.33;;;3.13;;
58338;SDS011;48278;52.704;6.536;2023-02-04T11:42:47;17.58;;;2.72;;
58338;SDS011;48278;52.704;6.536;2023-02-04T11:45:21;25.00;;;3.10;;
58338;SDS011;48278;52.704;6.536;2023-02-04T11:47:50;24.15;;;3.45;;
58338;SDS011;48278;52.704;6.536;2023-02-04T11:52:49;18.00;;;2.70;;
58338;SDS011;48278;52.704;6.536;2023-02-04T11:55:15;18.67;;;2.28;;
58338;SDS011;48278;52.704;6.536;2023-02-04T11:57:43;19.08;;;2.30;;
58338;SDS011;48278;52.704;6.536;2023-02-04T12:00:13;13.90;;;2.05;;
58338;SDS011;48278;52.704;6.536;2023-02-04T12:02:43;18.75;;;2.58;;
58338;SDS011;48278;52.704;6.536;2023-02-04T12:05:16;16.08;;;2.10;;
58338;SDS011;48278;52.704;6.536;2023-02-04T12:07:44;18.77;;;2.15;;
58338;SDS011;48278;52.704;6.536;2023-02-04T12:12:52;22.98;;;2.30;;
58338;SDS011;48278;52.704;6.536;2023-02-04T12:15:23;16.02;;;2.75;;
58338;SDS011;48278;52.704;6.536;2023-02-04T12:20:31;17.85;;;2.40;;
58338;SDS011;48278;52.704;6.536;2023-02-04T12:22:57;14.27;;;1.80;;
58338;SDS011;48278;52.704;6.536;2023-02-04T12:25:23;26.58;;;2.58;;
58338;SDS011;48278;52.704;6.536;2023-02-04T12:27:51;23.38;;;2.30;;
58338;SDS011;48278;52.704;6.536;2023-02-04T12:30:19;26.27;;;2.50;;
58338;SDS011;48278;52.704;6.536;2023-02-04T12:32:49;18.02;;;2.10;;
58338;SDS011;48278;52.704;6.536;2023-02-04T12:35:15;23.33;;;2.78;;
58338;SDS011;48278;52.704;6.536;2023-02-04T12:37:41;24.80;;;2.90;;
58338;SDS011;48278;52.704;6.536;2023-02-04T12:40:09;14.73;;;2.20;;
58338;SDS011;48278;52.704;6.536;2023-02-04T12:42:42;15.43;;;2.40;;
58338;SDS011;48278;52.704;6.536;2023-02-04T12:45:09;16.73;;;2.30;;
58338;SDS011;48278;52.704;6.536;2023-02-04T12:47:36;16.35;;;2.08;;
58338;SDS011;48278;52.704;6.536;2023-02-04T12:50:03;26.20;;;2.90;;
58338;SDS011;48278;52.704;6.536;2023-02-04T12:54:55;19.90;;;3.20;;
58338;SDS011;48278;52.704;6.536;2023-02-04T12:57:21;21.92;;;2.78;;
58338;SDS011;48278;52.704;6.536;2023-02-04T12:59:47;22.88;;;2.38;;
58338;SDS011;48278;52.704;6.536;2023-02-04T13:02:13;23.07;;;4.87;;
58338;SDS011;48278;52.704;6.536;2023-02-04T13:04:39;21.23;;;2.63;;
58338;SDS011;48278;52.704;6.536;2023-02-04T13:07:06;22.35;;;2.65;;
58338;SDS011;48278;52.704;6.536;2023-02-04T13:09:33;17.33;;;2.35;;
58338;SDS011;48278;52.704;6.536;2023-02-04T13:11:59;17.77;;;3.58;;
58338;SDS011;48278;52.704;6.536;2023-02-04T13:14:25;27.67;;;4.22;;
58338;SDS011;48278;52.704;6.536;2023-02-04T13:16:51;20.10;;;3.75;;
58338;SDS011;48278;52.704;6.536;2023-02-04T13:19:16;24.80;;;3.47;;
58338;SDS011;48278;52.704;6.536;2023-02-04T13:21:42;23.92;;;4.25;;
58338;SDS011;48278;52.704;6.536;2023-02-04T13:24:08;23.90;;;3.38;;
58338;SDS011;48278;52.704;6.536;2023-02-04T13:26:33;19.45;;;2.72;;
58338;SDS011;48278;52.704;6.536;2023-02-04T13:28:59;22.00;;;3.60;;
58338;SDS011;48278;52.704;6.536;2023-02-04T13:31:25;24.98;;;4.30;;
58338;SDS011;48278;52.704;6.536;2023-02-04T13:33:51;22.33;;;4.10;;
58338;SDS011;48278;52.704;6.536;2023-02-04T13:36:16;27.42;;;3.92;;
58338;SDS011;48278;52.704;6.536;2023-02-04T13:38:42;21.58;;;3.88;;
58338;SDS011;48278;52.704;6.536;2023-02-04T13:41:08;20.85;;;5.30;;
58338;SDS011;48278;52.704;6.536;2023-02-04T13:43:33;26.73;;;4.10;;
58338;SDS011;48278;52.704;6.536;2023-02-04T13:45:59;28.67;;;5.65;;
58338;SDS011;48278;52.704;6.536;2023-02-04T13:50:52;30.57;;;3.70;;
58338;SDS011;48278;52.704;6.536;2023-02-04T13:53:18;22.02;;;3.70;;
58338;SDS011;48278;52.704;6.536;2023-02-04T13:55:44;29.25;;;4.32;;
58338;SDS011;48278;52.704;6.536;2023-02-04T13:58:09;21.35;;;2.95;;
58338;SDS011;48278;52.704;6.536;2023-02-04T14:00:35;30.23;;;4.03;;
58338;SDS011;48278;52.704;6.536;2023-02-04T14:03:01;22.92;;;3.47;;
58338;SDS011;48278;52.704;6.536;2023-02-04T14:05:26;24.90;;;4.30;;
58338;SDS011;48278;52.704;6.536;2023-02-04T14:07:52;25.92;;;3.95;;
58338;SDS011;48278;52.704;6.536;2023-02-04T14:10:18;23.75;;;3.80;;
58338;SDS011;48278;52.704;6.536;2023-02-04T14:12:46;28.45;;;3.35;;
58338;SDS011;48278;52.704;6.536;2023-02-04T14:15:11;35.20;;;3.70;;
58338;SDS011;48278;52.704;6.536;2023-02-04T14:17:37;23.25;;;4.00;;
58338;SDS011;48278;52.704;6.536;2023-02-04T14:20:03;26.70;;;3.92;;
58338;SDS011;48278;52.704;6.536;2023-02-04T14:22:29;18.80;;;3.77;;
58338;SDS011;48278;52.704;6.536;2023-02-04T14:24:55;26.95;;;5.30;;
58338;SDS011;48278;52.704;6.536;2023-02-04T14:27:21;26.30;;;4.72;;
58338;SDS011;48278;52.704;6.536;2023-02-04T14:29:47;28.13;;;5.20;;
58338;SDS011;48278;52.704;6.536;2023-02-04T14:32:13;23.90;;;4.75;;
58338;SDS011;48278;52.704;6.536;2023-02-04T14:34:38;21.08;;;4.35;;
58338;SDS011;48278;52.704;6.536;2023-02-04T14:37:04;31.02;;;4.40;;
58338;SDS011;48278;52.704;6.536;2023-02-04T14:39:30;34.90;;;6.55;;
58338;SDS011;48278;52.704;6.536;2023-02-04T14:41:55;40.15;;;7.57;;
58338;SDS011;48278;52.704;6.536;2023-02-04T14:44:21;43.10;;;6.45;;
58338;SDS011;48278;52.704;6.536;2023-02-04T14:46:47;34.13;;;7.32;;
58338;SDS011;48278;52.704;6.536;2023-02-04T14:49:14;31.45;;;4.97;;
58338;SDS011;48278;52.704;6.536;2023-02-04T14:51:40;30.63;;;4.90;;
58338;SDS011;48278;52.704;6.536;2023-02-04T14:54:06;33.90;;;4.95;;